Time;durP1;ratioP1;P1;durP2;ratioP2;P2;SDS_P1;SDS_P2;PMS_P1;PMS_P2;Temp;Humidity;BMP_temperature;BMP_pressure;BME280_temperature;BME280_humidity;BME280_pressure;Samples;Min_cycle;Max_cycle;Signal;HPM_P1;HPM_P2
2023/09/04 00:00:06;;;;;;;1.65;1.33;;;;;;;19.42;73.34;100456.47;340126;28;4512;-70
2023/09/04 00:00:18;;;;;;;1.42;1.20;;;;;;;19.44;73.19;100465.16;337385;28;11047;-70
2023/09/04 00:00:31;;;;;;;1.40;1.10;;;;;;;19.45;73.21;100463.34;339882;28;4694;-70
2023/09/04 00:00:43;;;;;;;1.75;1.10;;;;;;;19.44;73.37;100459.88;337094;28;17568;-70
2023/09/04 00:00:58;;;;;;;1.77;1.17;;;;;;;19.46;73.17;100459.78;339793;28;4505;-70
2023/09/04 00:01:10;;;;;;;1.80;1.30;;;;;;;19.46;73.32;100458.00;337512;28;17584;-70
2023/09/04 00:01:22;;;;;;;1.77;1.25;;;;;;;19.48;73.09;100463.19;339083;28;4632;-70
2023/09/04 00:01:34;;;;;;;1.40;1.10;;;;;;;19.49;72.99;100463.09;335978;28;18204;-70
2023/09/04 00:01:47;;;;;;;1.60;1.30;;;;;;;19.46;72.92;100463.28;339375;28;5327;-70
2023/09/04 00:01:59;;;;;;;1.90;1.40;;;;;;;19.47;73.05;100461.47;337073;28;17929;-70
2023/09/04 00:02:11;;;;;;;1.73;1.30;;;;;;;19.46;72.99;100462.44;340077;28;5304;-70
2023/09/04 00:02:23;;;;;;;1.60;1.20;;;;;;;19.46;72.94;100458.00;336949;28;18275;-71
2023/09/04 00:02:35;;;;;;;1.70;1.30;;;;;;;19.49;72.97;100464.88;339675;28;4589;-70
2023/09/04 00:02:49;;;;;;;1.95;1.40;;;;;;;19.50;72.92;100458.69;337545;28;17963;-71
2023/09/04 00:03:01;;;;;;;1.60;1.20;;;;;;;19.50;72.91;100463.94;338701;28;4653;-71
2023/09/04 00:03:15;;;;;;;1.70;1.20;;;;;;;19.48;73.15;100466.66;337407;28;4712;-71
2023/09/04 00:03:28;;;;;;;2.00;1.50;;;;;;;19.47;73.10;100464.13;337901;28;5464;-72
2023/09/04 00:03:40;;;;;;;2.42;1.55;;;;;;;19.48;73.06;100456.13;339595;28;5164;-70
2023/09/04 00:03:52;;;;;;;2.17;1.42;;;;;;;19.48;73.12;100461.41;339884;28;4759;-70
2023/09/04 00:04:06;;;;;;;1.60;1.30;;;;;;;19.48;73.24;100464.03;336990;28;17694;-72
2023/09/04 00:04:19;;;;;;;1.30;1.20;;;;;;;19.47;73.40;100459.69;339313;28;18093;-71
2023/09/04 00:04:31;;;;;;;1.55;1.30;;;;;;;19.45;73.41;100461.56;335739;28;18417;-71
2023/09/04 00:04:43;;;;;;;1.80;1.38;;;;;;;19.45;73.39;100458.91;339439;28;4671;-71
2023/09/04 00:04:55;;;;;;;1.65;1.23;;;;;;;19.46;73.48;100463.28;336981;28;19123;-71
2023/09/04 00:05:07;;;;;;;1.60;1.17;;;;;;;19.46;73.33;100460.63;340111;28;5226;-71
2023/09/04 00:05:19;;;;;;;1.90;1.10;;;;;;;19.46;73.44;100463.28;337460;28;11230;-71
2023/09/04 00:05:34;;;;;;;2.03;1.30;;;;;;;19.46;73.51;100458.00;340200;28;4689;-71
2023/09/04 00:05:46;;;;;;;1.67;1.30;;;;;;;19.47;73.38;100459.69;337127;28;16577;-71
2023/09/04 00:05:58;;;;;;;3.70;1.25;;;;;;;19.46;73.49;100462.44;334041;28;5258;-71
2023/09/04 00:06:10;;;;;;;5.82;1.25;;;;;;;19.46;73.45;100459.78;335912;28;17663;-71
2023/09/04 00:06:22;;;;;;;5.05;1.40;;;;;;;19.41;73.45;100465.31;338640;28;5703;-71
2023/09/04 00:06:34;;;;;;;3.50;1.48;;;;;;;19.37;73.34;100463.78;334902;28;11883;-71
2023/09/04 00:06:46;;;;;;;1.65;1.25;;;;;;;19.38;73.60;100460.22;339618;28;6284;-71
2023/09/04 00:06:58;;;;;;;1.73;1.20;;;;;;;19.38;73.36;100462.84;339665;28;4533;-71
2023/09/04 00:07:10;;;;;;;1.77;1.15;;;;;;;19.39;73.20;100456.63;337245;28;17899;-71
2023/09/04 00:07:22;;;;;;;1.70;1.20;;;;;;;19.37;73.47;100463.78;339280;28;4534;-71
2023/09/04 00:07:34;;;;;;;1.77;1.30;;;;;;;19.39;73.45;100461.06;336295;28;10846;-71
2023/09/04 00:07:46;;;;;;;1.85;1.30;;;;;;;19.41;73.27;100464.47;339437;28;5179;-71
2023/09/04 00:07:58;;;;;;;1.50;1.27;;;;;;;19.41;73.33;100460.03;340144;28;5951;-71
2023/09/04 00:08:11;;;;;;;1.45;1.20;;;;;;;19.40;73.31;100463.63;337367;28;18160;-71
2023/09/04 00:08:23;;;;;;;1.38;1.25;;;;;;;19.40;73.33;100458.34;339958;28;4708;-71
2023/09/04 00:08:36;;;;;;;1.48;1.20;;;;;;;19.36;73.62;100462.09;336506;28;18220;-71
2023/09/04 00:08:48;;;;;;;1.45;1.13;;;;;;;19.39;73.54;100461.06;339814;28;5417;-71
2023/09/04 00:09:00;;;;;;;1.55;1.20;;;;;;;19.39;73.63;100461.91;337881;28;4620;-71
2023/09/04 00:09:14;;;;;;;1.63;1.30;;;;;;;19.40;73.40;100458.34;335819;28;18665;-71
2023/09/04 00:09:26;;;;;;;1.93;1.40;;;;;;;19.35;73.32;100463.84;335961;28;18545;-71
2023/09/04 00:09:39;;;;;;;1.88;1.33;;;;;;;19.35;73.39;100468.28;338368;28;4829;-71
2023/09/04 00:09:52;;;;;;;1.55;1.25;;;;;;;19.33;73.53;100457.81;336264;28;18264;-71
2023/09/04 00:10:04;;;;;;;1.70;1.20;;;;;;;19.33;73.51;100464.88;339883;28;4599;-71
2023/09/04 00:10:16;;;;;;;1.70;1.20;;;;;;;19.33;73.63;100462.25;336650;28;17865;-72
2023/09/04 00:10:28;;;;;;;1.52;1.17;;;;;;;19.34;73.55;100464.81;335043;28;4616;-71
2023/09/04 00:10:40;;;;;;;1.77;1.20;;;;;;;19.34;73.63;100454.25;338827;28;4753;-70
2023/09/04 00:10:52;;;;;;;1.60;1.20;;;;;;;19.32;73.59;100455.28;332702;28;17787;-69
2023/09/04 00:11:04;;;;;;;1.33;1.20;;;;;;;19.28;73.53;100459.03;338581;28;5686;-70
2023/09/04 00:11:16;;;;;;;1.52;1.20;;;;;;;19.26;73.95;100466.19;335968;28;11983;-72
2023/09/04 00:11:29;;;;;;;1.73;1.23;;;;;;;19.27;73.78;100458.16;338974;28;4685;-70
2023/09/04 00:11:41;;;;;;;1.63;1.15;;;;;;;19.29;73.59;100456.28;339079;28;4684;-70
2023/09/04 00:11:52;;;;;;;1.42;1.15;;;;;;;19.28;74.00;100459.03;337109;28;18081;-70
2023/09/04 00:12:05;;;;;;;1.42;1.25;;;;;;;19.28;73.90;100459.88;339938;28;5073;-70
2023/09/04 00:12:18;;;;;;;1.40;1.30;;;;;;;19.27;73.87;100457.31;337594;28;5469;-70
2023/09/04 00:12:31;;;;;;;1.35;1.20;;;;;;;19.26;73.50;100456.47;340122;28;5064;-70
2023/09/04 00:12:43;;;;;;;1.67;1.42;;;;;;;19.27;73.77;100457.31;337222;28;4636;-70
2023/09/04 00:12:55;;;;;;;1.70;1.40;;;;;;;19.28;73.64;100454.63;339814;28;4522;-70
2023/09/04 00:13:07;;;;;;;1.55;1.27;;;;;;;19.31;73.71;100453.59;338118;28;4750;-70
2023/09/04 00:13:19;;;;;;;1.80;1.20;;;;;;;19.33;73.67;100454.34;337915;28;17121;-70
2023/09/04 00:13:31;;;;;;;2.75;1.15;;;;;;;19.29;73.66;100458.94;334757;28;4608;-70
2023/09/04 00:13:43;;;;;;;2.70;1.17;;;;;;;19.29;73.76;100448.38;336343;28;16774;-70
2023/09/04 00:13:55;;;;;;;1.45;1.13;;;;;;;19.29;74.04;100458.09;339268;28;5098;-70
2023/09/04 00:14:07;;;;;;;1.55;1.20;;;;;;;19.32;73.72;100452.66;339850;28;4562;-70
2023/09/04 00:14:19;;;;;;;1.92;1.35;;;;;;;19.31;74.10;100453.59;337225;28;12757;-70
2023/09/04 00:14:32;;;;;;;3.15;1.30;;;;;;;19.31;73.74;100456.22;339440;28;4577;-70
2023/09/04 00:14:44;;;;;;;4.93;1.48;;;;;;;19.32;73.84;100450.03;339130;28;11967;-70
2023/09/04 00:14:56;;;;;;;5.63;1.55;;;;;;;19.30;73.89;100451.91;336812;28;18282;-70
2023/09/04 00:15:08;;;;;;;4.55;1.40;;;;;;;19.33;73.75;100452.53;336210;28;5005;-70
2023/09/04 00:15:20;;;;;;;1.48;1.20;;;;;;;19.34;73.68;100453.41;337141;28;18293;-71
2023/09/04 00:15:32;;;;;;;1.70;1.10;;;;;;;19.30;73.31;100451.91;338843;28;5335;-71
2023/09/04 00:15:44;;;;;;;1.77;1.08;;;;;;;19.29;73.59;100455.44;339358;28;4535;-71
2023/09/04 00:15:56;;;;;;;2.00;1.23;;;;;;;19.26;73.75;100455.63;334560;28;17458;-71
2023/09/04 00:16:09;;;;;;;2.33;1.30;;;;;;;19.27;73.65;100457.31;340202;28;4668;-71
2023/09/04 00:16:21;;;;;;;2.95;1.45;;;;;;;19.27;73.63;100460.81;337576;28;17905;-71
2023/09/04 00:16:33;;;;;;;2.30;1.40;;;;;;;19.28;73.64;100453.78;339148;28;5916;-71
2023/09/04 00:16:45;;;;;;;1.77;1.25;;;;;;;19.28;73.61;100453.78;336478;28;4623;-71
2023/09/04 00:16:57;;;;;;;1.95;1.15;;;;;;;19.28;73.67;100457.25;340287;28;5146;-70
2023/09/04 00:17:10;;;;;;;2.05;1.20;;;;;;;19.30;73.58;100451.91;337876;28;5570;-71
2023/09/04 00:17:22;;;;;;;1.53;1.30;;;;;;;19.28;73.86;100453.78;339179;28;16894;-70
2023/09/04 00:17:34;;;;;;;1.70;1.20;;;;;;;19.28;73.81;100459.88;336235;28;11782;-72
2023/09/04 00:17:50;;;;;;;2.00;1.40;;;;;;;19.27;73.83;100454.69;339231;28;4705;-70
2023/09/04 00:18:03;;;;;;;1.98;1.50;;;;;;;19.29;73.94;100455.44;335643;28;18000;-70
2023/09/04 00:18:15;;;;;;;1.83;1.38;;;;;;;19.30;73.81;100457.16;331764;28;4595;-72
2023/09/04 00:18:28;;;;;;;1.70;1.20;;;;;;;19.32;73.65;100460.56;338899;28;5390;-70
2023/09/04 00:18:40;;;;;;;1.77;1.23;;;;;;;19.30;73.68;100452.75;340066;28;8049;-70
2023/09/04 00:18:52;;;;;;;1.83;1.30;;;;;;;19.30;73.78;100457.16;333073;28;18084;-71
2023/09/04 00:19:04;;;;;;;1.73;1.30;;;;;;;19.31;73.67;100458.84;339943;28;4710;-71
2023/09/04 00:19:18;;;;;;;2.03;1.40;;;;;;;19.31;73.60;100457.06;337837;28;18549;-71
2023/09/04 00:19:32;;;;;;;1.77;1.33;;;;;;;19.30;73.55;100457.16;339984;28;5263;-70
2023/09/04 00:19:44;;;;;;;1.35;1.20;;;;;;;19.26;73.61;100460.91;336384;28;16536;-70
2023/09/04 00:19:56;;;;;;;1.40;1.23;;;;;;;19.27;73.62;100458.16;332009;28;18093;-70
2023/09/04 00:20:11;;;;;;;1.83;1.30;;;;;;;19.28;73.67;100459.03;339874;28;4557;-70
2023/09/04 00:20:24;;;;;;;1.90;1.30;;;;;;;19.24;73.67;100450.44;336970;28;17645;-70
2023/09/04 00:20:36;;;;;;;1.63;1.25;;;;;;;19.26;73.61;100458.28;336280;28;17888;-70
2023/09/04 00:20:48;;;;;;;1.73;1.20;;;;;;;19.25;73.72;100454.75;339335;28;4523;-70
2023/09/04 00:21:00;;;;;;;2.10;1.27;;;;;;;19.26;73.64;100460.91;339437;28;4684;-70
2023/09/04 00:21:13;;;;;;;2.40;1.35;;;;;;;19.24;73.47;100468.06;336964;28;18260;-70
2023/09/04 00:21:25;;;;;;;1.85;1.30;;;;;;;19.24;73.65;100452.25;339575;28;4798;-71
2023/09/04 00:21:37;;;;;;;1.38;1.20;;;;;;;19.26;73.50;100455.63;336705;28;18239;-71
2023/09/04 00:21:50;;;;;;;1.55;1.33;;;;;;;19.25;73.70;100456.56;338555;28;4637;-71
2023/09/04 00:22:02;;;;;;;1.55;1.30;;;;;;;19.26;74.09;100453.84;335119;28;11378;-70
2023/09/04 00:22:14;;;;;;;1.50;1.25;;;;;;;19.27;73.59;100457.31;338414;28;5499;-70
2023/09/04 00:22:27;;;;;;;1.42;1.17;;;;;;;19.28;73.60;100459.88;338264;28;4726;-70
2023/09/04 00:22:40;;;;;;;1.45;1.23;;;;;;;19.25;73.43;100453.94;335192;28;17981;-70
2023/09/04 00:22:52;;;;;;;1.70;1.30;;;;;;;19.21;73.67;100460.31;336153;28;5597;-70
2023/09/04 00:23:04;;;;;;;1.80;1.40;;;;;;;19.18;73.78;100457.84;337535;28;17400;-71
2023/09/04 00:23:16;;;;;;;1.50;1.30;;;;;;;19.20;73.89;100456.00;338264;28;5526;-71
2023/09/04 00:23:28;;;;;;;1.53;1.20;;;;;;;19.21;74.00;100463.78;335570;28;10879;-71
2023/09/04 00:23:40;;;;;;;1.80;1.20;;;;;;;19.22;73.85;100464.66;338043;28;5283;-71
2023/09/04 00:23:52;;;;;;;2.00;1.37;;;;;;;19.24;73.85;100458.34;336627;28;5707;-71
2023/09/04 00:24:04;;;;;;;1.80;1.50;;;;;;;19.22;73.91;100459.38;334631;28;17563;-71
2023/09/04 00:24:19;;;;;;;1.98;1.42;;;;;;;19.24;73.85;100452.25;340340;28;4644;-71
2023/09/04 00:24:31;;;;;;;1.70;1.40;;;;;;;19.25;73.82;100460.03;337285;28;17725;-71
2023/09/04 00:24:43;;;;;;;1.48;1.30;;;;;;;19.27;73.72;100452.06;336742;28;18000;-71
2023/09/04 00:24:55;;;;;;;1.58;1.42;;;;;;;19.27;73.74;100457.31;340143;28;4637;-71
2023/09/04 00:25:07;;;;;;;1.40;1.30;;;;;;;19.26;73.77;100455.63;339808;28;4622;-71
2023/09/04 00:25:19;;;;;;;2.20;1.20;;;;;;;19.26;73.88;100460.91;336990;28;18312;-71
2023/09/04 00:25:31;;;;;;;2.42;1.30;;;;;;;19.27;73.57;100449.41;340013;28;4546;-71
2023/09/04 00:25:43;;;;;;;3.38;1.30;;;;;;;19.24;73.86;100454.88;333127;28;10743;-70
2023/09/04 00:25:56;;;;;;;3.23;1.40;;;;;;;19.23;73.84;100455.78;337748;28;18636;-70
2023/09/04 00:26:08;;;;;;;2.80;1.40;;;;;;;19.25;73.83;100459.19;340019;28;4618;-70
2023/09/04 00:26:20;;;;;;;3.03;1.35;;;;;;;19.21;73.78;100457.66;333388;28;17982;-70
2023/09/04 00:26:32;;;;;;;3.00;1.48;;;;;;;19.21;73.95;100449.75;339538;28;4599;-70
2023/09/04 00:26:44;;;;;;;2.95;1.40;;;;;;;19.24;73.85;100452.25;337279;28;11853;-70
2023/09/04 00:26:56;;;;;;;2.40;1.17;;;;;;;19.15;73.87;100454.41;339564;28;4525;-70
2023/09/04 00:27:08;;;;;;;2.03;1.30;;;;;;;19.17;73.70;100462.25;338474;28;5174;-70
2023/09/04 00:27:20;;;;;;;2.20;1.30;;;;;;;19.20;73.83;100458.63;339240;28;18991;-70
2023/09/04 00:27:32;;;;;;;2.30;1.40;;;;;;;19.21;73.86;100457.66;332837;28;4879;-71
2023/09/04 00:27:44;;;;;;;2.08;1.40;;;;;;;19.21;73.77;100453.25;338769;28;4518;-71
2023/09/04 00:27:57;;;;;;;2.45;1.50;;;;;;;19.22;73.83;100451.47;342443;28;5136;-71
2023/09/04 00:28:09;;;;;;;2.35;1.42;;;;;;;19.25;73.70;100448.66;339663;28;10632;-71
2023/09/04 00:28:22;;;;;;;1.88;1.25;;;;;;;19.24;73.40;100447.81;342212;28;4499;-71
2023/09/04 00:28:34;;;;;;;1.50;1.10;;;;;;;19.25;73.51;100464.47;341162;28;12019;-71
2023/09/04 00:28:47;;;;;;;2.00;1.20;;;;;;;19.24;73.67;100446.97;339844;28;18032;-71
2023/09/04 00:28:59;;;;;;;2.43;1.23;;;;;;;19.23;73.78;100450.53;342022;28;4491;-71
2023/09/04 00:29:11;;;;;;;2.47;1.30;;;;;;;19.21;73.85;100453.25;339874;28;19363;-71
2023/09/04 00:29:23;;;;;;;2.22;1.30;;;;;;;19.21;73.85;100458.50;342422;28;4938;-71
2023/09/04 00:29:35;;;;;;;3.50;1.30;;;;;;;19.20;73.89;100450.72;338696;28;18193;-71
2023/09/04 00:29:47;;;;;;;3.60;1.40;;;;;;;19.19;73.89;100454.28;339267;28;4904;-71
2023/09/04 00:29:59;;;;;;;2.08;1.40;;;;;;;19.18;73.81;100458.69;335501;28;4543;-70
2023/09/04 00:30:11;;;;;;;2.38;1.45;;;;;;;19.19;73.82;100454.28;337660;28;17959;-70
2023/09/04 00:30:24;;;;;;;1.92;1.27;;;;;;;19.19;73.68;100454.28;338804;28;5187;-71
2023/09/04 00:30:36;;;;;;;1.70;1.15;;;;;;;19.20;73.96;100453.34;336359;28;17926;-71
2023/09/04 00:30:48;;;;;;;1.77;1.25;;;;;;;19.20;73.97;100456.81;339117;28;4689;-71
2023/09/04 00:31:00;;;;;;;2.10;1.48;;;;;;;19.22;73.81;100460.22;335157;28;18983;-70
2023/09/04 00:31:12;;;;;;;2.00;1.40;;;;;;;19.23;73.84;100447.88;337101;28;5534;-71
2023/09/04 00:31:24;;;;;;;1.70;1.27;;;;;;;19.18;73.93;100457.84;339033;28;5550;-70
2023/09/04 00:31:36;;;;;;;2.05;1.40;;;;;;;19.20;73.92;100456.00;333690;28;18034;-71
2023/09/04 00:31:48;;;;;;;2.33;1.40;;;;;;;19.20;74.24;100461.25;339678;28;4610;-71
2023/09/04 00:32:02;;;;;;;2.20;1.42;;;;;;;19.18;74.62;100463.97;336133;28;11342;-71
2023/09/04 00:32:15;;;;;;;2.15;1.40;;;;;;;19.19;74.36;100454.28;339932;28;4551;-70
2023/09/04 00:32:27;;;;;;;1.60;1.30;;;;;;;19.21;74.47;100463.78;336960;28;18022;-70
2023/09/04 00:32:39;;;;;;;1.73;1.40;;;;;;;19.22;74.26;100451.47;338414;28;4723;-70
2023/09/04 00:32:52;;;;;;;1.88;1.42;;;;;;;19.23;74.02;100453.16;339111;28;12245;-70
2023/09/04 00:33:04;;;;;;;1.63;1.30;;;;;;;19.25;73.91;100453.94;336728;28;19124;-70
2023/09/04 00:33:16;;;;;;;1.30;1.10;;;;;;;19.26;73.98;100455.63;336713;28;16553;-70
2023/09/04 00:33:28;;;;;;;1.20;1.10;;;;;;;19.26;74.12;100459.13;339301;28;5209;-70
2023/09/04 00:33:40;;;;;;;1.65;1.40;;;;;;;19.25;74.05;100454.75;338784;28;4514;-70
2023/09/04 00:33:52;;;;;;;2.15;1.50;;;;;;;19.27;73.89;100452.91;336510;28;19025;-70
2023/09/04 00:34:04;;;;;;;2.67;1.40;;;;;;;19.26;74.01;100451.22;338407;28;5526;-70
2023/09/04 00:34:16;;;;;;;2.65;1.30;;;;;;;19.26;73.98;100458.28;339587;28;16627;-70
2023/09/04 00:34:28;;;;;;;2.95;1.48;;;;;;;19.25;74.06;100449.50;335776;28;18181;-71
2023/09/04 00:34:40;;;;;;;2.33;1.50;;;;;;;19.24;73.91;100460.16;338435;28;4523;-71
2023/09/04 00:34:52;;;;;;;2.25;1.50;;;;;;;19.23;73.90;100451.38;332152;28;18188;-71
2023/09/04 00:35:05;;;;;;;2.28;1.50;;;;;;;19.20;73.87;100458.63;339477;28;5372;-71
2023/09/04 00:35:17;;;;;;;1.85;1.30;;;;;;;19.20;73.94;100451.56;337130;28;17851;-71
2023/09/04 00:35:29;;;;;;;2.35;1.30;;;;;;;19.22;73.70;100448.84;339771;28;4538;-71
2023/09/04 00:35:41;;;;;;;2.33;1.30;;;;;;;19.23;73.83;100445.25;338945;28;4493;-71
2023/09/04 00:35:53;;;;;;;2.30;1.30;;;;;;;19.24;73.97;100450.44;336636;28;17846;-71
2023/09/04 00:36:05;;;;;;;1.92;1.40;;;;;;;19.25;73.60;100456.56;339803;28;4488;-71
2023/09/04 00:36:17;;;;;;;1.67;1.45;;;;;;;19.26;73.77;100445.09;336854;28;19037;-71
2023/09/04 00:36:29;;;;;;;1.90;1.42;;;;;;;19.23;73.76;100445.25;339772;28;5094;-71
2023/09/04 00:36:41;;;;;;;2.22;1.48;;;;;;;19.25;73.77;100453.94;339014;28;4498;-70
2023/09/04 00:36:53;;;;;;;2.13;1.35;;;;;;;19.23;73.70;100445.25;336181;28;18370;-70
2023/09/04 00:37:09;;;;;;;1.90;1.25;;;;;;;19.24;73.74;100452.25;338091;28;4670;-70
2023/09/04 00:37:21;;;;;;;1.85;1.30;;;;;;;19.23;74.05;100448.72;337279;28;17638;-71
2023/09/04 00:37:33;;;;;;;1.80;1.33;;;;;;;19.25;73.76;100448.66;337476;28;18479;-71
2023/09/04 00:37:45;;;;;;;1.60;1.35;;;;;;;19.25;73.96;100449.50;339725;28;4535;-71
2023/09/04 00:37:57;;;;;;;1.35;1.25;;;;;;;19.26;73.68;100445.09;340340;28;10648;-71
2023/09/04 00:38:10;;;;;;;1.40;1.20;;;;;;;19.18;73.69;100447.31;339112;28;17730;-70
2023/09/04 00:38:22;;;;;;;1.65;1.23;;;;;;;19.19;74.01;100443.72;339708;28;11125;-71
2023/09/04 00:38:35;;;;;;;2.08;1.42;;;;;;;19.19;74.01;100454.28;341382;28;5284;-70
2023/09/04 00:38:47;;;;;;;2.17;1.40;;;;;;;19.18;73.99;100452.59;342173;28;5426;-70
2023/09/04 00:38:59;;;;;;;2.33;1.30;;;;;;;19.18;74.31;100455.22;339922;28;18041;-71
2023/09/04 00:39:11;;;;;;;2.50;1.30;;;;;;;19.19;73.92;100443.72;342578;28;4527;-71
2023/09/04 00:39:23;;;;;;;2.03;1.30;;;;;;;19.19;74.01;100441.09;339899;28;18362;-71
2023/09/04 00:39:36;;;;;;;1.55;1.25;;;;;;;19.17;74.32;100446.44;341161;28;4521;-71
2023/09/04 00:39:48;;;;;;;1.65;1.40;;;;;;;19.18;74.12;100440.25;339715;28;18278;-71
2023/09/04 00:40:01;;;;;;;1.70;1.33;;;;;;;19.18;74.26;100442.03;342370;28;5299;-71
2023/09/04 00:40:13;;;;;;;1.75;1.13;;;;;;;19.18;74.19;100436.78;340871;28;4695;-71
2023/09/04 00:40:25;;;;;;;1.67;1.20;;;;;;;19.19;73.98;100435.81;332765;28;18077;-71
2023/09/04 00:40:37;;;;;;;1.60;1.27;;;;;;;19.19;73.88;100439.28;339428;28;4576;-71
2023/09/04 00:40:49;;;;;;;3.20;1.30;;;;;;;19.20;74.12;100445.44;337206;28;13143;-71
2023/09/04 00:41:02;;;;;;;3.53;1.38;;;;;;;19.19;74.10;100441.09;340335;28;5332;-71
2023/09/04 00:41:15;;;;;;;2.50;1.30;;;;;;;19.19;74.18;100443.72;337230;28;16668;-71
2023/09/04 00:41:28;;;;;;;2.00;1.30;;;;;;;19.19;74.05;100449.84;339915;28;4824;-71
2023/09/04 00:41:40;;;;;;;1.70;1.30;;;;;;;19.19;74.01;100438.47;331826;28;17666;-71
2023/09/04 00:41:52;;;;;;;1.85;1.38;;;;;;;19.19;74.06;100443.72;339646;28;5415;-71
2023/09/04 00:42:04;;;;;;;2.00;1.42;;;;;;;19.20;74.01;100445.44;336177;28;18680;-71
2023/09/04 00:42:16;;;;;;;2.15;1.50;;;;;;;19.19;74.14;100438.47;340022;28;4719;-71
2023/09/04 00:42:29;;;;;;;1.98;1.40;;;;;;;19.20;74.16;100445.44;340109;28;5347;-71
2023/09/04 00:42:41;;;;;;;1.73;1.20;;;;;;;19.17;74.28;100446.44;336455;28;17880;-71
2023/09/04 00:42:53;;;;;;;1.58;1.10;;;;;;;19.19;73.98;100449.00;337864;28;4683;-71
2023/09/04 00:43:05;;;;;;;1.40;1.13;;;;;;;19.21;74.37;100441.84;339899;28;4562;-71
2023/09/04 00:43:17;;;;;;;1.33;1.15;;;;;;;19.20;74.11;100445.44;335726;28;4812;-71
2023/09/04 00:43:36;;;;;;;1.50;1.30;;;;;;;19.20;74.07;100445.44;336876;28;12173;-72
2023/09/04 00:43:48;;;;;;;1.48;1.20;;;;;;;19.21;74.15;100447.13;337150;28;16529;-70
2023/09/04 00:44:00;;;;;;;1.92;1.30;;;;;;;19.20;73.85;100442.81;337642;28;4762;-71
2023/09/04 00:44:12;;;;;;;2.20;1.30;;;;;;;19.19;73.75;100449.00;339969;28;4469;-71
2023/09/04 00:44:24;;;;;;;2.00;1.25;;;;;;;19.16;73.66;100445.59;339231;28;10503;-71
2023/09/04 00:44:37;;;;;;;1.50;1.17;;;;;;;19.18;73.83;100442.03;336953;28;17317;-71
2023/09/04 00:44:52;;;;;;;1.90;1.30;;;;;;;19.20;73.95;100445.44;339414;28;4502;-71
2023/09/04 00:45:06;;;;;;;1.92;1.50;;;;;;;19.20;73.95;100442.81;336987;28;18029;-71
2023/09/04 00:45:18;;;;;;;2.67;1.50;;;;;;;19.20;73.75;100445.44;337634;28;17593;-71
2023/09/04 00:45:32;;;;;;;2.45;1.30;;;;;;;19.20;73.79;100448.91;336899;28;5670;-71
2023/09/04 00:45:46;;;;;;;1.60;1.20;;;;;;;19.21;73.79;100444.50;339208;28;5206;-70
2023/09/04 00:45:58;;;;;;;2.42;1.20;;;;;;;19.21;73.83;100447.97;337461;28;17793;-70
2023/09/04 00:46:11;;;;;;;2.20;1.20;;;;;;;19.19;73.68;100449.00;340276;28;4708;-70
2023/09/04 00:46:23;;;;;;;1.73;1.20;;;;;;;19.18;73.69;100448.16;337376;28;18074;-70
2023/09/04 00:46:35;;;;;;;1.42;1.30;;;;;;;19.19;73.92;100446.38;338889;28;4551;-70
2023/09/04 00:46:48;;;;;;;1.50;1.30;;;;;;;19.18;73.92;100444.69;337054;28;16720;-70
2023/09/04 00:47:00;;;;;;;1.75;1.30;;;;;;;19.18;73.80;100445.53;339918;28;4526;-70
2023/09/04 00:47:14;;;;;;;2.03;1.30;;;;;;;19.19;73.94;100443.72;337786;28;12125;-70
2023/09/04 00:47:29;;;;;;;2.05;1.33;;;;;;;19.19;73.80;100444.56;336773;28;17915;-70
2023/09/04 00:47:43;;;;;;;2.10;1.48;;;;;;;19.20;73.82;100448.06;338158;28;5596;-70
2023/09/04 00:47:57;;;;;;;2.08;1.38;;;;;;;19.19;74.20;100446.38;331358;28;18286;-70
2023/09/04 00:48:10;;;;;;;1.77;1.15;;;;;;;19.08;73.78;100446.97;328131;28;17821;-70
2023/09/04 00:48:23;;;;;;;2.50;1.38;;;;;;;19.03;73.86;100449.84;338269;28;5377;-71
2023/09/04 00:48:36;;;;;;;2.40;1.60;;;;;;;19.05;74.00;100442.69;338145;28;17310;-70
2023/09/04 00:48:48;;;;;;;1.98;1.55;;;;;;;19.06;73.94;100452.31;337231;28;11296;-70
2023/09/04 00:49:01;;;;;;;1.67;1.38;;;;;;;19.09;74.20;100446.84;338851;28;5264;-70
2023/09/04 00:49:14;;;;;;;1.55;1.35;;;;;;;19.06;74.24;100444.41;336388;28;5256;-70
2023/09/04 00:49:28;;;;;;;2.10;1.48;;;;;;;19.07;74.22;100450.53;333964;28;5296;-70
2023/09/04 00:49:42;;;;;;;5.20;1.48;;;;;;;19.08;74.16;100447.81;335954;28;17910;-70
2023/09/04 00:49:54;;;;;;;4.72;1.30;;;;;;;19.07;74.20;100451.38;337067;28;18071;-70
2023/09/04 00:50:09;;;;;;;2.75;1.30;;;;;;;19.08;74.01;100447.81;340353;28;4953;-70
2023/09/04 00:50:23;;;;;;;3.17;1.30;;;;;;;19.10;74.05;100450.38;337581;28;18137;-71
2023/09/04 00:50:36;;;;;;;2.67;1.30;;;;;;;19.12;74.18;100446.72;336338;28;18211;-71
2023/09/04 00:50:48;;;;;;;1.70;1.35;;;;;;;19.11;73.68;100452.91;338785;28;18159;-71
2023/09/04 00:51:00;;;;;;;2.20;1.40;;;;;;;19.12;73.76;100448.50;332756;28;17977;-71
2023/09/04 00:51:13;;;;;;;2.30;1.38;;;;;;;19.13;73.70;100451.03;340064;28;5232;-71
2023/09/04 00:51:25;;;;;;;2.38;1.38;;;;;;;19.15;73.69;100451.78;334632;28;17886;-71
2023/09/04 00:51:39;;;;;;;1.70;1.20;;;;;;;19.16;73.84;100450.88;338090;28;5064;-71
2023/09/04 00:51:52;;;;;;;1.45;1.15;;;;;;;19.20;73.78;100446.28;336475;28;18944;-71
2023/09/04 00:52:05;;;;;;;1.30;1.00;;;;;;;19.20;73.67;100445.44;335440;28;17965;-71
2023/09/04 00:52:18;;;;;;;1.60;1.10;;;;;;;19.19;73.64;100447.22;339423;28;5358;-71
2023/09/04 00:52:30;;;;;;;2.28;1.40;;;;;;;19.17;73.57;100454.34;337370;28;17591;-71
2023/09/04 00:52:42;;;;;;;2.42;1.45;;;;;;;19.18;73.92;100448.16;339078;28;5253;-71
2023/09/04 00:52:58;;;;;;;2.05;1.50;;;;;;;19.20;73.75;100450.72;337181;28;18594;-71
2023/09/04 00:53:10;;;;;;;2.90;1.58;;;;;;;19.20;73.56;100445.44;336743;28;17778;-71
2023/09/04 00:53:22;;;;;;;3.80;1.33;;;;;;;19.21;73.47;100452.41;340252;28;4712;-71
2023/09/04 00:53:37;;;;;;;2.75;1.23;;;;;;;19.21;73.34;100450.59;337108;28;4491;-70
2023/09/04 00:53:49;;;;;;;2.45;1.48;;;;;;;19.22;73.35;100452.31;339707;28;4663;-70
2023/09/04 00:54:01;;;;;;;2.28;1.40;;;;;;;19.23;73.21;100445.25;337069;28;17513;-70
2023/09/04 00:54:14;;;;;;;1.73;1.17;;;;;;;19.25;73.12;100453.94;340049;28;4644;-70
2023/09/04 00:54:27;;;;;;;2.08;1.35;;;;;;;19.23;73.13;100450.53;336967;28;17751;-70
2023/09/04 00:54:41;;;;;;;4.15;1.45;;;;;;;19.16;73.35;100445.59;335904;28;11545;-70
2023/09/04 00:54:54;;;;;;;4.30;1.40;;;;;;;19.18;73.45;100442.03;339444;28;7467;-70
2023/09/04 00:55:07;;;;;;;2.15;1.25;;;;;;;19.19;73.44;100443.72;335983;28;17748;-70
2023/09/04 00:55:19;;;;;;;2.17;1.20;;;;;;;19.18;73.47;100442.88;338613;28;5249;-70
2023/09/04 00:55:31;;;;;;;1.98;1.30;;;;;;;19.18;73.52;100444.69;335898;28;17866;-70
2023/09/04 00:55:43;;;;;;;2.63;1.30;;;;;;;19.19;73.38;100449.84;338685;28;5189;-69
2023/09/04 00:55:57;;;;;;;3.58;1.48;;;;;;;19.19;73.27;100438.47;337516;28;18424;-70
2023/09/04 00:56:13;;;;;;;3.88;1.52;;;;;;;19.18;73.05;100452.59;339771;28;12843;-70
2023/09/04 00:56:25;;;;;;;2.72;1.40;;;;;;;19.15;73.66;100438.63;336154;28;18163;-70
2023/09/04 00:56:38;;;;;;;1.35;1.20;;;;;;;19.15;73.29;100443.88;337974;28;5634;-70
2023/09/04 00:56:51;;;;;;;1.35;1.15;;;;;;;19.16;73.55;100434.22;336375;28;12055;-70
2023/09/04 00:57:05;;;;;;;1.50;1.38;;;;;;;19.16;73.91;100445.59;335801;28;18033;-70
2023/09/04 00:57:18;;;;;;;1.88;1.55;;;;;;;19.17;73.70;100443.81;336158;28;18197;-70
2023/09/04 00:57:30;;;;;;;2.20;1.50;;;;;;;19.18;73.65;100444.69;340293;28;4637;-70
2023/09/04 00:57:42;;;;;;;2.10;1.40;;;;;;;19.19;73.54;100441.94;336561;28;17863;-70
2023/09/04 00:57:55;;;;;;;1.38;1.20;;;;;;;19.18;73.60;100436.78;339402;28;4693;-70
2023/09/04 00:58:07;;;;;;;1.50;1.40;;;;;;;19.19;73.41;100441.94;335456;28;18808;-70
2023/09/04 00:58:19;;;;;;;1.80;1.40;;;;;;;19.21;73.55;100442.69;339677;28;5390;-70
2023/09/04 00:58:34;;;;;;;1.55;1.30;;;;;;;19.21;73.46;100437.44;337433;28;18019;-70
2023/09/04 00:58:46;;;;;;;1.38;1.27;;;;;;;19.21;73.35;100441.84;335934;28;12023;-72
2023/09/04 00:58:58;;;;;;;1.73;1.48;;;;;;;19.21;73.59;100441.84;339503;28;5510;-69
2023/09/04 00:59:10;;;;;;;1.83;1.48;;;;;;;19.21;73.51;100439.22;336325;28;12330;-72